Time;durP1;ratioP1;P1;durP2;ratioP2;P2;SDS_P1;SDS_P2;PMS_P1;PMS_P2;Temp;Humidity;BMP_temperature;BMP_pressure;BME280_temperature;BME280_humidity;BME280_pressure;Samples;Min_cycle;Max_cycle;Signal;HPM_P1;HPM_P2
2023/01/10 00:00:44;;;;;;;2.30;0.70;;;6.00;90.50;;;;;;5048189;28;20119;-75
2023/01/10 00:03:10;;;;;;;1.27;0.50;;;6.10;90.60;;;;;;5070467;28;20593;-76
2023/01/10 00:05:35;;;;;;;1.05;0.60;;;6.10;90.60;;;;;;5059580;28;20070;-76
2023/01/10 00:08:02;;;;;;;1.58;0.63;;;6.10;90.60;;;;;;5038129;28;20059;-76
2023/01/10 00:10:28;;;;;;;1.13;0.50;;;6.10;90.60;;;;;;5058192;28;20582;-76
2023/01/10 00:15:37;;;;;;;0.98;0.60;;;6.10;90.70;;;;;;5056486;28;20117;-76
2023/01/10 00:18:03;;;;;;;0.52;0.52;;;6.10;90.70;;;;;;5036685;28;20043;-76
2023/01/10 00:20:28;;;;;;;2.35;0.70;;;6.10;90.70;;;;;;5067665;28;20553;-76
2023/01/10 00:22:54;;;;;;;2.58;0.60;;;6.10;90.70;;;;;;5051141;28;20697;-75
2023/01/10 00:25:20;;;;;;;1.08;0.80;;;6.10;91.00;;;;;;5053254;28;20063;-75
2023/01/10 00:27:49;;;;;;;0.95;0.50;;;6.10;90.80;;;;;;5076737;28;20035;-76
2023/01/10 00:30:16;;;;;;;1.00;0.70;;;6.10;90.90;;;;;;5073549;28;20031;-75
2023/01/10 00:32:42;;;;;;;1.25;0.47;;;6.10;90.90;;;;;;5053733;28;20402;-76
2023/01/10 00:35:08;;;;;;;1.13;0.50;;;6.10;90.90;;;;;;5068992;28;20039;-76
2023/01/10 00:37:33;;;;;;;0.50;0.50;;;6.10;90.90;;;;;;5052044;28;20043;-77
2023/01/10 00:39:59;;;;;;;0.70;0.40;;;6.10;90.90;;;;;;5055623;28;20088;-75
2023/01/10 00:45:10;;;;;;;1.77;0.43;;;6.10;90.90;;;;;;5070866;28;20550;-75
2023/01/10 00:47:36;;;;;;;0.52;0.45;;;6.10;90.90;;;;;;5058083;28;20083;-75
2023/01/10 00:50:03;;;;;;;0.50;0.40;;;6.10;91.00;;;;;;5070388;28;20468;-75
2023/01/10 00:52:29;;;;;;;0.70;0.50;;;6.10;91.00;;;;;;5069317;28;20690;-76
2023/01/10 00:54:54;;;;;;;4.70;0.60;;;6.10;91.00;;;;;;5068292;28;20044;-74
2023/01/10 00:57:20;;;;;;;2.33;0.55;;;6.00;91.00;;;;;;5070581;28;20039;-76
2023/01/10 00:59:46;;;;;;;1.52;0.63;;;6.00;91.00;;;;;;5086404;28;20036;-77
2023/01/10 01:02:11;;;;;;;2.92;0.40;;;6.00;91.00;;;;;;5069458;28;20055;-75
2023/01/10 01:04:37;;;;;;;3.47;0.52;;;6.00;91.00;;;;;;5071467;28;20048;-74
2023/01/10 01:07:02;;;;;;;1.40;0.60;;;6.00;91.00;;;;;;5069278;28;20038;-75
2023/01/10 01:09:28;;;;;;;0.85;0.40;;;6.00;91.10;;;;;;5054017;28;20613;-76
2023/01/10 01:11:55;;;;;;;2.53;0.60;;;6.00;91.10;;;;;;5055181;28;20081;-76
2023/01/10 01:14:21;;;;;;;2.08;0.55;;;5.90;91.10;;;;;;5068703;28;20035;-74
2023/01/10 01:16:47;;;;;;;0.98;0.60;;;5.90;91.10;;;;;;5070900;28;20123;-76
2023/01/10 01:19:12;;;;;;;0.55;0.40;;;6.00;91.20;;;;;;5059620;28;20038;-74
2023/01/10 01:21:38;;;;;;;2.22;0.50;;;5.90;91.40;;;;;;5072921;28;20093;-75
2023/01/10 01:24:04;;;;;;;1.42;0.60;;;5.90;91.20;;;;;;5084500;28;20065;-75
2023/01/10 01:26:29;;;;;;;1.10;0.52;;;5.90;91.20;;;;;;5087522;28;20093;-75
2023/01/10 01:28:55;;;;;;;1.73;0.65;;;5.90;91.20;;;;;;5063737;28;20403;-76
2023/01/10 01:31:20;;;;;;;0.90;0.50;;;5.90;91.20;;;;;;5073086;28;20104;-75
2023/01/10 01:33:46;;;;;;;1.88;0.65;;;5.90;91.20;;;;;;5057696;28;20185;-75
2023/01/10 01:36:11;;;;;;;0.60;0.60;;;6.00;91.30;;;;;;5058205;27;20035;-75
2023/01/10 01:38:38;;;;;;;1.23;0.77;;;6.00;91.30;;;;;;5077781;28;20564;-76
2023/01/10 01:41:55;;;;;;;1.48;0.60;;;6.00;91.30;;;;;;5086965;28;20036;-74
2023/01/10 01:44:06;;;;;;;0.65;0.60;;;6.00;91.30;;;;;;5072779;28;20036;-76
2023/01/10 01:46:33;;;;;;;1.73;0.52;;;6.00;91.30;;;;;;5071377;28;20110;-75
2023/01/10 01:48:59;;;;;;;0.73;0.60;;;6.00;91.30;;;;;;5068709;28;20043;-75
2023/01/10 01:51:26;;;;;;;2.20;0.80;;;6.00;91.30;;;;;;5060622;28;20047;-75
2023/01/10 01:54:01;;;;;;;2.20;0.82;;;6.00;91.30;;;;;;5072366;27;20040;-75
2023/01/10 01:56:30;;;;;;;2.25;0.60;;;6.00;91.30;;;;;;5062491;28;20039;-75
2023/01/10 01:59:01;;;;;;;0.88;0.60;;;6.00;91.20;;;;;;5088001;28;20046;-76
2023/01/10 02:01:27;;;;;;;3.00;1.00;;;6.00;91.20;;;;;;5060860;27;20082;-76
2023/01/10 02:03:54;;;;;;;1.27;0.80;;;6.00;91.20;;;;;;5058341;28;20213;-75
2023/01/10 02:06:20;;;;;;;0.50;0.50;;;6.00;91.20;;;;;;5057471;28;20039;-75
2023/01/10 02:08:50;;;;;;;3.58;1.13;;;6.00;91.20;;;;;;5070144;28;20607;-75
2023/01/10 02:11:16;;;;;;;1.10;0.88;;;6.10;91.30;;;;;;5076041;27;20481;-77
2023/01/10 02:13:41;;;;;;;2.17;0.90;;;6.10;91.30;;;;;;5068648;28;20524;-76
2023/01/10 02:16:07;;;;;;;1.67;1.15;;;6.10;91.30;;;;;;5069819;28;20399;-76
2023/01/10 02:18:33;;;;;;;1.15;0.70;;;6.10;91.20;;;;;;5085250;27;20047;-75
2023/01/10 02:21:20;;;;;;;2.20;0.95;;;6.10;91.20;;;;;;5063157;28;20088;-75
2023/01/10 02:24:13;;;;;;;1.05;0.90;;;6.10;91.20;;;;;;5077794;28;20045;-76
2023/01/10 02:26:46;;;;;;;0.80;0.70;;;6.10;91.20;;;;;;5061580;28;20039;-74
2023/01/10 02:29:16;;;;;;;1.02;0.60;;;6.20;91.20;;;;;;5075449;28;20043;-75
2023/01/10 02:31:57;;;;;;;1.67;0.90;;;6.20;91.20;;;;;;5073107;28;20713;-76
2023/01/10 02:34:28;;;;;;;2.35;1.17;;;6.20;91.20;;;;;;5073510;28;20036;-75
2023/01/10 02:37:12;;;;;;;2.30;0.90;;;6.20;91.20;;;;;;5069472;28;20032;-75
2023/01/10 02:39:53;;;;;;;2.13;1.08;;;6.20;91.20;;;;;;5088167;28;20043;-76
2023/01/10 02:42:56;;;;;;;1.48;0.95;;;6.20;91.20;;;;;;5053220;28;20070;-76
2023/01/10 02:45:30;;;;;;;2.20;1.45;;;6.20;91.20;;;;;;5087937;27;20028;-75
2023/01/10 02:47:56;;;;;;;2.25;1.60;;;6.20;91.20;;;;;;5066622;28;20652;-75
2023/01/10 02:50:24;;;;;;;2.53;1.33;;;6.10;91.20;;;;;;5065632;28;20069;-76
2023/01/10 02:52:50;;;;;;;2.03;1.08;;;6.10;91.20;;;;;;5070736;28;20502;-76
2023/01/10 02:55:15;;;;;;;1.70;1.20;;;6.10;91.20;;;;;;5072301;28;20061;-75
2023/01/10 02:58:06;;;;;;;1.55;1.20;;;6.10;91.20;;;;;;5058659;28;20070;-75
2023/01/10 03:01:17;;;;;;;3.63;1.27;;;6.10;91.20;;;;;;5063387;28;20035;-75
2023/01/10 03:03:52;;;;;;;2.25;1.00;;;6.10;91.20;;;;;;5009588;28;20037;-76
2023/01/10 03:06:39;;;;;;;2.08;0.95;;;6.10;91.20;;;;;;5026984;28;20037;-76
2023/01/10 03:09:29;;;;;;;1.85;0.80;;;6.10;91.20;;;;;;5009127;28;20059;-76
2023/01/10 03:12:05;;;;;;;2.60;0.90;;;6.10;91.20;;;;;;5010259;28;20038;-75
2023/01/10 03:14:31;;;;;;;1.92;1.00;;;6.10;91.20;;;;;;5010970;28;20037;-74
2023/01/10 03:17:01;;;;;;;4.20;1.40;;;6.10;91.20;;;;;;4994291;28;20044;-76
2023/01/10 03:19:30;;;;;;;2.47;1.20;;;6.10;91.20;;;;;;4994704;28;20447;-75
2023/01/10 03:21:56;;;;;;;2.78;1.02;;;6.10;91.20;;;;;;5025245;28;20041;-75
2023/01/10 03:24:38;;;;;;;1.98;1.10;;;6.10;91.30;;;;;;5007129;28;20444;-75
2023/01/10 03:27:10;;;;;;;2.65;1.10;;;6.10;91.60;;;;;;5011761;28;20044;-75
2023/01/10 03:29:44;;;;;;;4.25;1.20;;;6.10;91.20;;;;;;5006814;28;20046;-75
2023/01/10 03:32:10;;;;;;;3.20;1.27;;;6.10;91.20;;;;;;5024344;28;20045;-76
2023/01/10 03:34:36;;;;;;;2.70;1.10;;;6.10;91.20;;;;;;5008230;28;20144;-76
2023/01/10 03:37:26;;;;;;;1.00;0.90;;;6.10;91.20;;;;;;4996014;28;20124;-76
2023/01/10 03:40:08;;;;;;;1.35;1.10;;;6.10;91.20;;;;;;5029015;28;21080;-75
2023/01/10 03:45:41;;;;;;;1.25;0.88;;;6.10;91.20;;;;;;5056733;28;20658;-75
2023/01/10 03:48:07;;;;;;;2.80;1.33;;;6.10;91.20;;;;;;5037981;28;20043;-75
2023/01/10 03:50:32;;;;;;;2.55;1.15;;;6.10;91.20;;;;;;5055016;28;20028;-75
2023/01/10 03:52:58;;;;;;;1.20;1.00;;;6.10;91.20;;;;;;5054550;28;20548;-75
2023/01/10 03:55:26;;;;;;;2.42;1.10;;;6.10;91.20;;;;;;5053898;28;20809;-75
2023/01/10 03:57:51;;;;;;;1.77;1.10;;;6.10;91.20;;;;;;5052737;28;20056;-76
2023/01/10 04:00:17;;;;;;;1.40;1.15;;;6.10;91.20;;;;;;5051810;28;20071;-75
2023/01/10 04:02:43;;;;;;;2.97;1.20;;;6.10;91.10;;;;;;5054239;28;20044;-75
2023/01/10 04:05:08;;;;;;;3.53;1.58;;;6.00;91.10;;;;;;5053755;28;20066;-75
2023/01/10 04:07:34;;;;;;;5.43;1.02;;;6.00;91.10;;;;;;5036389;28;20040;-76
2023/01/10 04:10:00;;;;;;;4.72;1.10;;;6.00;91.00;;;;;;5037611;28;20486;-75
2023/01/10 04:12:26;;;;;;;1.52;1.10;;;6.00;91.00;;;;;;5067505;28;20038;-75
2023/01/10 04:14:51;;;;;;;1.77;1.05;;;6.00;91.00;;;;;;5033925;28;20803;-76
2023/01/10 04:17:17;;;;;;;3.83;1.42;;;5.90;91.00;;;;;;5050328;28;20547;-76
2023/01/10 04:19:43;;;;;;;2.65;1.20;;;5.90;91.00;;;;;;5050835;28;20617;-74
2023/01/10 04:22:09;;;;;;;1.67;1.05;;;5.90;91.00;;;;;;5054529;28;20036;-76
2023/01/10 04:24:34;;;;;;;2.17;1.23;;;5.90;91.00;;;;;;5052741;28;20036;-75
2023/01/10 04:27:00;;;;;;;1.35;0.93;;;5.80;91.00;;;;;;5065455;28;20105;-76
2023/01/10 04:29:26;;;;;;;3.45;1.48;;;5.80;91.00;;;;;;5054033;28;20074;-74
2023/01/10 04:31:51;;;;;;;2.97;1.10;;;5.80;91.10;;;;;;5051012;28;20120;-75
2023/01/10 04:34:18;;;;;;;1.00;0.90;;;5.80;91.00;;;;;;5038850;28;20036;-75
2023/01/10 04:36:45;;;;;;;3.88;1.23;;;5.90;91.10;;;;;;5056249;28;20032;-75
2023/01/10 04:39:10;;;;;;;3.08;1.67;;;5.90;91.10;;;;;;5049721;28;20070;-77
2023/01/10 04:41:36;;;;;;;2.97;1.15;;;5.90;91.10;;;;;;5049234;28;20044;-74
2023/01/10 04:44:01;;;;;;;2.15;1.02;;;5.90;91.10;;;;;;5068851;28;20036;-74
2023/01/10 04:46:27;;;;;;;2.65;1.02;;;5.90;91.10;;;;;;5069631;28;20038;-75
2023/01/10 04:48:52;;;;;;;1.95;0.90;;;5.90;91.10;;;;;;5065836;28;20433;-75
2023/01/10 04:51:18;;;;;;;2.38;1.10;;;5.90;91.10;;;;;;5057628;28;20036;-75
2023/01/10 04:53:43;;;;;;;3.83;1.05;;;5.90;91.10;;;;;;5070095;28;20039;-75
2023/01/10 04:56:13;;;;;;;2.88;1.65;;;5.90;91.10;;;;;;5068274;28;20426;-74
2023/01/10 04:58:39;;;;;;;2.67;1.02;;;5.90;91.10;;;;;;5070352;28;20526;-74
2023/01/10 05:01:14;;;;;;;3.15;1.65;;;5.90;91.10;;;;;;5043664;28;20042;-75
2023/01/10 05:03:40;;;;;;;3.22;1.10;;;5.80;91.10;;;;;;5052080;28;21295;-74
2023/01/10 05:06:06;;;;;;;3.75;0.93;;;5.80;91.10;;;;;;5059521;28;20039;-77
2023/01/10 05:08:32;;;;;;;2.05;1.08;;;5.80;91.10;;;;;;5056938;28;20039;-77
2023/01/10 05:10:57;;;;;;;3.03;1.13;;;5.80;91.10;;;;;;5090872;28;20046;-75
2023/01/10 05:13:24;;;;;;;3.22;1.38;;;5.90;91.10;;;;;;5086819;28;20144;-74
2023/01/10 05:15:52;;;;;;;4.18;1.10;;;5.90;91.10;;;;;;5060495;28;20036;-75
2023/01/10 05:18:17;;;;;;;4.45;0.90;;;5.80;91.40;;;;;;5071620;28;20069;-74
2023/01/10 05:20:43;;;;;;;2.55;0.85;;;5.80;91.00;;;;;;5060857;28;20032;-74
2023/01/10 05:23:08;;;;;;;5.72;1.23;;;5.80;91.00;;;;;;5072175;27;20733;-75
2023/01/10 05:25:34;;;;;;;2.97;1.13;;;5.80;91.40;;;;;;5075652;28;20736;-74
2023/01/10 05:27:59;;;;;;;6.10;1.05;;;5.80;91.00;;;;;;5055241;28;20055;-74
2023/01/10 05:30:25;;;;;;;3.45;0.93;;;5.80;91.00;;;;;;5069393;28;20085;-74
2023/01/10 05:32:50;;;;;;;3.40;0.95;;;5.70;90.90;;;;;;5073727;28;20050;-75
2023/01/10 05:35:16;;;;;;;4.50;0.80;;;5.70;90.90;;;;;;5073111;28;20051;-75
2023/01/10 05:37:42;;;;;;;1.00;0.70;;;5.70;90.90;;;;;;5058179;28;20177;-75
2023/01/10 05:40:08;;;;;;;0.90;0.80;;;5.60;90.90;;;;;;5039557;28;20406;-75
2023/01/10 05:42:33;;;;;;;2.05;1.02;;;5.60;90.90;;;;;;5039240;28;20541;-75
2023/01/10 05:44:59;;;;;;;2.67;0.85;;;5.60;90.90;;;;;;5052302;28;20040;-75
2023/01/10 05:47:24;;;;;;;4.00;0.88;;;5.50;90.90;;;;;;5035970;28;20066;-77
2023/01/10 05:49:50;;;;;;;1.85;0.70;;;5.50;90.90;;;;;;5069436;28;20711;-76
2023/01/10 05:52:15;;;;;;;2.25;1.00;;;5.50;91.00;;;;;;5039563;28;20203;-75
2023/01/10 05:54:41;;;;;;;2.85;0.95;;;5.50;91.00;;;;;;5053971;28;20052;-75
2023/01/10 05:57:06;;;;;;;3.78;1.17;;;5.50;91.00;;;;;;5048688;28;20079;-75
2023/01/10 05:59:32;;;;;;;4.15;1.00;;;5.50;91.00;;;;;;5047693;28;20044;-76
2023/01/10 06:01:58;;;;;;;2.90;1.05;;;5.50;91.00;;;;;;5042165;28;20097;-76
2023/01/10 06:04:23;;;;;;;2.30;0.93;;;5.50;91.00;;;;;;5049458;28;20613;-76
2023/01/10 06:06:49;;;;;;;3.92;1.00;;;5.50;91.00;;;;;;5052903;28;20039;-76
2023/01/10 06:09:14;;;;;;;3.13;0.90;;;5.50;91.00;;;;;;5051079;28;20035;-75
2023/01/10 06:11:40;;;;;;;5.80;1.20;;;5.60;91.00;;;;;;5037859;28;20047;-78
2023/01/10 06:14:06;;;;;;;5.50;1.17;;;5.60;91.10;;;;;;5053736;28;20036;-76
2023/01/10 06:16:32;;;;;;;4.07;1.48;;;5.60;91.00;;;;;;5052342;28;20064;-76
2023/01/10 06:18:57;;;;;;;4.43;1.67;;;5.60;91.40;;;;;;5050586;28;20637;-76
2023/01/10 06:21:23;;;;;;;4.20;1.50;;;5.60;91.00;;;;;;5062839;28;20052;-76
2023/01/10 06:23:48;;;;;;;3.00;1.25;;;5.60;91.00;;;;;;5057682;28;20036;-76
2023/01/10 06:26:14;;;;;;;6.63;1.10;;;5.60;91.00;;;;;;5055649;28;20572;-75
2023/01/10 06:28:40;;;;;;;3.80;1.13;;;5.60;90.90;;;;;;5036003;28;20052;-76
2023/01/10 06:31:06;;;;;;;3.42;1.48;;;5.60;90.90;;;;;;5035459;28;20071;-75
2023/01/10 06:33:32;;;;;;;4.72;1.45;;;5.60;90.90;;;;;;5052545;28;20032;-76
2023/01/10 06:35:57;;;;;;;6.65;1.08;;;5.60;90.90;;;;;;5022725;28;20054;-76
2023/01/10 06:38:23;;;;;;;3.42;1.30;;;5.70;90.90;;;;;;5076775;28;20040;-76
2023/01/10 06:40:48;;;;;;;1.83;0.90;;;5.70;90.90;;;;;;5071586;27;20086;-75
2023/01/10 06:43:14;;;;;;;1.90;0.90;;;5.70;90.90;;;;;;5056316;28;20034;-75
2023/01/10 06:45:40;;;;;;;5.00;1.10;;;5.70;90.90;;;;;;5052176;28;20038;-74
2023/01/10 06:48:05;;;;;;;5.57;1.10;;;5.70;90.90;;;;;;5056917;28;20048;-73
2023/01/10 06:50:31;;;;;;;2.75;1.27;;;5.70;90.90;;;;;;5075242;28;20036;-75
2023/01/10 06:52:57;;;;;;;3.22;1.10;;;5.70;90.90;;;;;;5059827;28;20104;-75
2023/01/10 06:55:23;;;;;;;4.15;1.15;;;5.70;90.90;;;;;;5049702;28;20088;-74
2023/01/10 06:57:48;;;;;;;2.70;0.98;;;5.70;90.90;;;;;;5052119;28;20044;-76
2023/01/10 07:00:14;;;;;;;2.78;0.85;;;5.70;90.90;;;;;;5067691;28;20028;-75
2023/01/10 07:02:40;;;;;;;3.40;1.00;;;5.70;90.90;;;;;;5070556;28;20566;-76
2023/01/10 07:05:06;;;;;;;3.03;1.10;;;5.70;90.90;;;;;;5072525;28;20067;-75
2023/01/10 07:07:31;;;;;;;2.65;1.00;;;5.80;90.90;;;;;;5068497;28;20036;-76
2023/01/10 07:09:58;;;;;;;2.63;1.30;;;5.70;90.90;;;;;;5065249;28;20125;-75
2023/01/10 07:12:24;;;;;;;5.25;2.38;;;5.70;90.90;;;;;;5066966;28;20546;-75
2023/01/10 07:14:49;;;;;;;2.97;1.10;;;5.70;90.90;;;;;;5069304;28;20024;-75
2023/01/10 07:17:15;;;;;;;2.85;1.10;;;5.70;90.90;;;;;;5051708;28;20028;-74
2023/01/10 07:19:40;;;;;;;3.95;1.23;;;5.70;90.80;;;;;;5065167;28;20044;-75
2023/01/10 07:22:06;;;;;;;4.68;1.38;;;5.80;90.90;;;;;;5070589;28;20028;-75
2023/01/10 07:24:31;;;;;;;4.15;1.13;;;5.80;90.90;;;;;;5072162;28;20039;-75
2023/01/10 07:26:57;;;;;;;3.95;1.23;;;5.70;90.80;;;;;;5074669;28;20031;-74
2023/01/10 07:29:22;;;;;;;3.92;1.48;;;5.80;90.90;;;;;;5056038;28;20032;-75
2023/01/10 07:31:48;;;;;;;6.95;2.83;;;5.80;90.90;;;;;;5073440;28;20028;-75
2023/01/10 07:34:13;;;;;;;2.83;1.50;;;5.80;90.90;;;;;;5059002;28;20050;-75
2023/01/10 07:36:39;;;;;;;7.18;1.58;;;5.80;90.90;;;;;;5070962;28;20031;-75
2023/01/10 07:39:05;;;;;;;5.82;1.70;;;5.80;90.80;;;;;;5072240;28;20042;-75
2023/01/10 07:41:30;;;;;;;5.13;1.25;;;5.80;90.80;;;;;;5054736;28;20040;-75
2023/01/10 07:43:56;;;;;;;6.80;2.00;;;5.80;90.80;;;;;;5088434;27;20083;-75
2023/01/10 07:46:21;;;;;;;4.68;1.40;;;5.80;90.80;;;;;;5054911;28;20441;-73
2023/01/10 07:48:48;;;;;;;3.53;1.58;;;5.80;90.80;;;;;;5070847;28;20043;-74
2023/01/10 07:51:13;;;;;;;3.55;1.95;;;5.80;90.70;;;;;;5058604;28;20036;-75
2023/01/10 07:53:39;;;;;;;4.10;1.45;;;5.80;90.70;;;;;;5069778;28;20047;-75
2023/01/10 07:56:04;;;;;;;5.40;2.13;;;5.80;90.70;;;;;;5073799;28;20032;-75
2023/01/10 07:58:31;;;;;;;6.13;2.15;;;5.80;90.70;;;;;;5052565;28;20636;-73
2023/01/10 08:00:58;;;;;;;5.85;1.52;;;5.80;90.70;;;;;;5068501;27;20309;-75
2023/01/10 08:03:23;;;;;;;5.10;1.15;;;5.80;90.70;;;;;;5069676;28;20032;-75
2023/01/10 08:05:49;;;;;;;7.55;1.52;;;5.80;90.70;;;;;;5054923;28;20417;-75
2023/01/10 08:08:16;;;;;;;3.55;1.25;;;5.90;90.70;;;;;;5069875;28;20410;-74
2023/01/10 08:10:41;;;;;;;3.35;1.63;;;5.90;90.70;;;;;;5074181;28;20042;-75
2023/01/10 08:13:07;;;;;;;7.85;1.30;;;5.90;90.70;;;;;;5055716;28;20036;-76
2023/01/10 08:15:32;;;;;;;2.95;1.10;;;5.90;90.70;;;;;;5071841;28;20035;-75
2023/01/10 08:18:00;;;;;;;6.85;1.52;;;5.90;90.70;;;;;;5053258;28;20040;-75
2023/01/10 08:20:25;;;;;;;2.67;1.40;;;5.90;90.70;;;;;;5069605;28;20109;-75
2023/01/10 08:22:51;;;;;;;3.83;1.23;;;5.90;90.70;;;;;;5056228;28;20032;-76
2023/01/10 08:25:16;;;;;;;4.25;1.30;;;5.90;90.70;;;;;;5072617;28;20046;-75
2023/01/10 08:27:42;;;;;;;4.70;1.20;;;5.90;90.70;;;;;;5074832;28;20039;-75
2023/01/10 08:30:08;;;;;;;5.72;1.92;;;5.90;90.70;;;;;;5074216;28;25568;-75
2023/01/10 08:32:33;;;;;;;3.47;1.40;;;5.90;90.70;;;;;;5056708;28;20524;-75
2023/01/10 08:34:59;;;;;;;5.32;1.67;;;5.80;91.00;;;;;;5055591;28;20057;-75
2023/01/10 08:37:24;;;;;;;4.25;1.80;;;5.80;90.60;;;;;;5085740;28;20092;-75
2023/01/10 08:39:50;;;;;;;5.80;2.45;;;5.80;90.60;;;;;;5055756;28;20035;-75
2023/01/10 08:42:16;;;;;;;5.45;2.08;;;5.80;90.60;;;;;;5058586;28;20032;-74
2023/01/10 08:44:42;;;;;;;5.70;1.38;;;5.80;91.00;;;;;;5074712;28;20067;-76
2023/01/10 08:47:07;;;;;;;2.63;1.25;;;5.80;90.60;;;;;;5073598;28;20063;-75
2023/01/10 08:49:33;;;;;;;5.22;1.52;;;5.90;90.70;;;;;;5093099;28;20030;-75
2023/01/10 08:52:00;;;;;;;6.53;1.90;;;5.90;90.60;;;;;;5062501;28;20118;-74
2023/01/10 08:54:25;;;;;;;8.52;1.90;;;5.90;90.60;;;;;;5075849;28;20050;-75
2023/01/10 08:56:51;;;;;;;6.90;1.95;;;5.90;90.60;;;;;;5075068;28;20460;-74
2023/01/10 08:59:17;;;;;;;7.93;1.77;;;5.90;90.60;;;;;;5073519;28;20537;-74
2023/01/10 09:01:42;;;;;;;6.35;1.67;;;5.90;90.60;;;;;;5071365;28;20117;-75
2023/01/10 09:04:08;;;;;;;3.35;1.30;;;5.90;90.60;;;;;;5091371;28;20040;-74
2023/01/10 09:06:33;;;;;;;5.88;1.50;;;5.90;90.60;;;;;;5093135;27;20035;-75
2023/01/10 09:08:59;;;;;;;6.32;1.77;;;6.00;90.60;;;;;;5056023;28;20043;-75
2023/01/10 09:11:24;;;;;;;9.43;3.83;;;6.00;90.60;;;;;;5072769;27;20035;-73
2023/01/10 09:13:50;;;;;;;7.65;2.47;;;6.10;90.60;;;;;;5075426;28;20094;-75
2023/01/10 09:16:16;;;;;;;8.60;3.40;;;6.10;90.60;;;;;;5058846;28;20150;-74
2023/01/10 09:18:42;;;;;;;4.10;1.35;;;6.10;90.60;;;;;;5057671;28;20035;-75
2023/01/10 09:21:07;;;;;;;4.57;1.55;;;6.20;90.60;;;;;;5059896;28;20062;-74
2023/01/10 09:23:33;;;;;;;5.35;1.50;;;6.30;90.60;;;;;;5072018;28;20659;-76
2023/01/10 09:25:59;;;;;;;8.45;1.20;;;6.30;90.50;;;;;;5066054;27;20653;-74
2023/01/10 09:28:24;;;;;;;8.27;1.33;;;6.40;90.40;;;;;;5076948;28;21013;-73
2023/01/10 09:30:50;;;;;;;4.35;1.15;;;6.40;90.40;;;;;;5060393;28;20042;-75
2023/01/10 09:33:15;;;;;;;7.47;1.70;;;6.40;90.30;;;;;;5075858;28;20901;-74
2023/01/10 09:35:41;;;;;;;5.43;1.40;;;6.50;90.40;;;;;;5077079;28;20874;-74
2023/01/10 09:38:10;;;;;;;3.60;1.15;;;6.50;90.30;;;;;;5077111;28;20097;-74
2023/01/10 09:41:03;;;;;;;9.48;3.30;;;6.60;90.30;;;;;;5064404;28;20040;-75
2023/01/10 09:43:41;;;;;;;12.80;4.80;;;6.80;90.40;;;;;;5055939;28;20038;-75
2023/01/10 09:46:16;;;;;;;8.68;3.72;;;6.90;90.30;;;;;;5077247;28;20031;-74
2023/01/10 09:48:53;;;;;;;6.28;1.50;;;7.00;90.30;;;;;;5076129;28;20039;-75
2023/01/10 09:51:31;;;;;;;4.18;1.80;;;7.10;90.10;;;;;;5090964;28;20509;-75
2023/01/10 09:53:58;;;;;;;4.63;1.85;;;7.20;90.00;;;;;;5073467;28;20082;-75
2023/01/10 09:56:24;;;;;;;5.40;1.50;;;7.20;89.90;;;;;;5073615;28;20035;-75
2023/01/10 09:58:50;;;;;;;5.82;2.03;;;7.20;89.80;;;;;;5058004;28;20292;-74
2023/01/10 10:01:20;;;;;;;10.48;1.90;;;7.20;89.70;;;;;;5075233;28;20035;-74
2023/01/10 10:04:26;;;;;;;10.80;1.60;;;7.20;89.50;;;;;;5077236;28;20051;-74
2023/01/10 10:06:51;;;;;;;9.90;1.35;;;7.30;89.40;;;;;;5081321;28;20095;-74
2023/01/10 10:09:29;;;;;;;6.70;2.03;;;7.30;89.60;;;;;;5070560;28;20043;-74
2023/01/10 10:12:13;;;;;;;7.45;1.10;;;7.30;89.20;;;;;;5070853;28;20043;-74
2023/01/10 10:14:38;;;;;;;9.35;1.70;;;7.30;89.90;;;;;;5060507;27;20071;-74
2023/01/10 10:17:09;;;;;;;7.60;1.83;;;7.30;89.30;;;;;;5091244;28;20115;-74
2023/01/10 10:19:47;;;;;;;3.75;1.10;;;7.30;89.20;;;;;;5072966;28;20096;-75
2023/01/10 10:22:37;;;;;;;9.98;1.95;;;7.40;89.20;;;;;;5078224;28;20040;-73
2023/01/10 10:25:26;;;;;;;8.70;1.73;;;7.40;89.00;;;;;;5088271;28;20546;-74
2023/01/10 10:28:04;;;;;;;6.55;1.70;;;7.40;88.80;;;;;;5069075;27;20054;-74
2023/01/10 10:31:00;;;;;;;7.25;1.55;;;7.40;88.80;;;;;;5090662;27;20104;-74
2023/01/10 10:33:26;;;;;;;6.80;2.25;;;7.50;88.40;;;;;;5090946;28;20032;-74
2023/01/10 10:35:58;;;;;;;14.20;2.58;;;7.50;88.70;;;;;;5090314;28;20042;-75
2023/01/10 10:38:28;;;;;;;8.23;1.90;;;7.50;88.50;;;;;;5054101;28;20035;-74
2023/01/10 10:40:54;;;;;;;5.97;1.55;;;7.60;88.50;;;;;;5061565;28;20737;-73
2023/01/10 10:43:21;;;;;;;6.47;1.50;;;7.60;88.30;;;;;;5074498;27;20040;-78
2023/01/10 10:45:51;;;;;;;3.95;1.67;;;7.60;88.30;;;;;;5062457;28;20173;-74
2023/01/10 10:48:25;;;;;;;14.55;3.15;;;7.60;88.30;;;;;;5059427;28;20063;-74
2023/01/10 10:50:57;;;;;;;11.15;2.75;;;7.60;88.20;;;;;;5043427;28;20124;-74
2023/01/10 10:53:22;;;;;;;;;;;7.70;88.10;;;;;;5061581;28;20761;-74
2023/01/10 10:55:48;;;;;;;7.03;1.98;;;7.70;88.20;;;;;;5091776;28;19916;-74
2023/01/10 10:58:14;;;;;;;6.30;1.98;;;7.70;88.20;;;;;;5078206;28;20529;-75
2023/01/10 11:00:40;;;;;;;8.65;2.03;;;7.80;87.90;;;;;;5072827;28;20040;-73
2023/01/10 11:03:33;;;;;;;5.30;1.90;;;7.80;87.70;;;;;;5073394;28;20038;-74
2023/01/10 11:05:59;;;;;;;6.32;1.70;;;7.90;87.40;;;;;;5091930;28;21389;-74
2023/01/10 11:08:25;;;;;;;5.10;1.40;;;7.90;87.60;;;;;;5075912;28;20032;-75
2023/01/10 11:10:58;;;;;;;6.68;1.48;;;8.00;87.60;;;;;;5060058;28;20039;-75
2023/01/10 11:13:32;;;;;;;7.05;1.55;;;8.10;87.30;;;;;;5072589;28;20513;-74
2023/01/10 11:15:58;;;;;;;9.45;1.80;;;8.20;87.30;;;;;;5075929;28;20035;-75
2023/01/10 11:18:26;;;;;;;6.07;1.58;;;8.30;87.50;;;;;;5073860;28;20048;-74
2023/01/10 11:21:04;;;;;;;8.50;1.63;;;8.50;87.30;;;;;;5077310;28;20518;-75
2023/01/10 11:23:42;;;;;;;7.28;1.75;;;8.60;86.70;;;;;;5088268;28;20050;-77
2023/01/10 11:26:39;;;;;;;7.28;2.30;;;8.60;86.00;;;;;;5061244;28;20032;-74
2023/01/10 11:29:18;;;;;;;8.57;2.75;;;8.60;85.40;;;;;;5066868;28;20027;-75
2023/01/10 11:31:44;;;;;;;7.97;2.00;;;8.60;85.30;;;;;;5057204;28;20586;-75
2023/01/10 11:34:36;;;;;;;7.40;2.10;;;8.50;85.60;;;;;;5053990;28;20058;-75
2023/01/10 11:37:30;;;;;;;6.85;1.45;;;8.40;84.90;;;;;;5068283;28;20539;-75
2023/01/10 11:40:06;;;;;;;6.43;1.50;;;8.40;84.70;;;;;;5071980;28;20043;-74
2023/01/10 11:42:32;;;;;;;5.13;1.55;;;8.30;85.00;;;;;;5073075;28;20036;-73
2023/01/10 11:45:16;;;;;;;3.83;1.38;;;8.30;85.20;;;;;;5061694;28;20065;-75
2023/01/10 11:47:53;;;;;;;4.80;1.55;;;8.30;85.10;;;;;;5076090;28;20035;-75
2023/01/10 11:50:21;;;;;;;6.97;1.55;;;8.30;85.40;;;;;;5075685;28;20106;-74
2023/01/10 11:52:46;;;;;;;7.57;1.77;;;8.30;85.40;;;;;;5060502;28;20031;-75
2023/01/10 11:55:26;;;;;;;4.47;1.25;;;8.20;85.30;;;;;;5075495;28;20031;-75
2023/01/10 11:58:04;;;;;;;8.93;2.38;;;8.20;84.70;;;;;;5072085;28;20028;-75
2023/01/10 12:00:40;;;;;;;12.70;2.13;;;8.20;84.80;;;;;;5054281;28;20131;-74
2023/01/10 12:03:31;;;;;;;8.68;2.80;;;8.20;85.00;;;;;;5060628;28;20053;-75
2023/01/10 12:06:07;;;;;;;5.82;1.52;;;8.20;84.50;;;;;;5058468;28;20066;-75
2023/01/10 12:08:37;;;;;;;5.20;1.88;;;8.10;84.60;;;;;;5070588;28;20052;-75
2023/01/10 12:11:05;;;;;;;6.65;1.35;;;8.10;84.70;;;;;;5075041;28;20035;-75
2023/01/10 12:13:44;;;;;;;5.93;1.95;;;8.10;84.50;;;;;;5070310;28;20050;-75
2023/01/10 12:16:30;;;;;;;5.93;1.85;;;8.10;84.10;;;;;;5088896;28;20035;-74
2023/01/10 12:19:00;;;;;;;5.13;1.83;;;8.00;83.80;;;;;;5058404;28;20618;-75
2023/01/10 12:21:37;;;;;;;5.60;1.43;;;8.00;84.30;;;;;;5055664;28;20076;-73
2023/01/10 12:24:17;;;;;;;7.90;1.73;;;8.00;84.30;;;;;;5074077;28;20036;-75
2023/01/10 12:26:43;;;;;;;6.53;1.77;;;8.00;84.40;;;;;;5060219;28;20032;-73
2023/01/10 12:29:12;;;;;;;7.00;2.00;;;8.00;84.30;;;;;;5075800;28;20038;-74
2023/01/10 12:31:39;;;;;;;9.75;1.38;;;8.00;84.10;;;;;;5071756;28;20130;-74
2023/01/10 12:34:10;;;;;;;5.97;1.85;;;8.00;84.00;;;;;;5060772;28;20046;-73
2023/01/10 12:36:48;;;;;;;5.47;1.67;;;7.90;83.90;;;;;;5069589;28;20122;-73
2023/01/10 12:39:27;;;;;;;6.35;1.60;;;8.00;84.00;;;;;;5079256;28;20476;-77
2023/01/10 12:44:54;;;;;;;9.13;2.20;;;7.90;83.90;;;;;;5090066;28;20139;-76
2023/01/10 12:47:46;;;;;;;9.27;2.63;;;7.90;84.00;;;;;;5057118;28;20043;-77
2023/01/10 12:50:16;;;;;;;4.20;1.58;;;7.90;83.70;;;;;;5087673;28;20039;-76
2023/01/10 12:52:55;;;;;;;7.45;1.70;;;7.90;83.90;;;;;;5069953;28;20038;-75
2023/01/10 12:55:22;;;;;;;5.57;1.60;;;7.80;83.70;;;;;;5091269;28;20055;-74
2023/01/10 12:57:52;;;;;;;7.57;1.75;;;7.80;83.80;;;;;;5075583;28;20035;-75
2023/01/10 13:00:23;;;;;;;11.02;3.58;;;7.80;83.80;;;;;;5057225;28;20064;-76
2023/01/10 13:02:50;;;;;;;11.95;3.30;;;7.80;83.70;;;;;;5069832;28;20031;-75
2023/01/10 13:05:26;;;;;;;7.55;3.92;;;7.80;83.80;;;;;;5070915;28;20046;-74
2023/01/10 13:07:59;;;;;;;11.43;3.00;;;7.80;83.60;;;;;;5066947;28;20039;-75
2023/01/10 13:10:25;;;;;;;5.97;1.55;;;7.70;83.60;;;;;;5054414;28;20586;-75
2023/01/10 13:13:14;;;;;;;6.75;1.83;;;7.70;83.60;;;;;;5069839;28;20043;-76
2023/01/10 13:16:02;;;;;;;9.75;4.78;;;7.70;83.20;;;;;;5085410;28;20050;-73
2023/01/10 13:18:29;;;;;;;15.40;11.55;;;7.70;83.20;;;;;;5080289;28;20044;-75
2023/01/10 13:21:07;;;;;;;7.72;2.92;;;7.70;83.60;;;;;;5073745;28;20515;-74